createdAt,value
2022-09-14T00:02:24.585Z,12.56
2022-09-14T00:04:52.455Z,12.53
2022-09-14T00:07:20.039Z,12.51
2022-09-14T00:09:49.079Z,12.47
2022-09-14T00:12:16.689Z,12.45
2022-09-14T00:14:46.510Z,12.42
2022-09-14T00:17:14.112Z,12.42
2022-09-14T00:19:41.690Z,12.36
2022-09-14T00:22:09.281Z,12.36
2022-09-14T00:24:36.870Z,12.35
2022-09-14T00:27:04.640Z,12.32
2022-09-14T00:29:33.432Z,12.29
2022-09-14T00:32:02.709Z,12.28
2022-09-14T00:34:30.424Z,12.26
2022-09-14T00:36:58.033Z,12.25
2022-09-14T00:39:28.209Z,12.22
2022-09-14T00:41:55.806Z,12.18
2022-09-14T00:44:41.854Z,12.17
2022-09-14T00:47:13.596Z,12.13
2022-09-14T00:49:42.259Z,12.10
2022-09-14T00:52:11.474Z,12.09
2022-09-14T00:54:40.360Z,12.08
2022-09-14T00:57:08.110Z,12.04
2022-09-14T00:59:40.849Z,12.01
2022-09-14T01:02:09.908Z,12.00
2022-09-14T01:04:38.945Z,11.99
2022-09-14T01:07:08.427Z,11.99
2022-09-14T01:09:41.543Z,11.98
2022-09-14T01:12:14.438Z,11.96
2022-09-14T01:14:45.916Z,11.98
2022-09-14T01:17:16.205Z,11.99
2022-09-14T01:19:58.935Z,11.99
2022-09-14T01:22:33.306Z,11.97
2022-09-14T01:25:07.311Z,11.95
2022-09-14T01:27:41.726Z,11.93
2022-09-14T01:30:10.722Z,11.92
2022-09-14T01:32:41.991Z,11.92
2022-09-14T01:35:15.967Z,11.92
2022-09-14T01:37:46.546Z,11.90
2022-09-14T01:40:17.558Z,11.87
2022-09-14T01:42:49.080Z,11.89
2022-09-14T01:45:19.287Z,11.90
2022-09-14T01:47:49.195Z,11.88
2022-09-14T01:50:21.500Z,11.89
2022-09-14T01:52:53.923Z,11.89
2022-09-14T01:55:23.849Z,11.90
2022-09-14T01:57:55.871Z,11.90
2022-09-14T02:00:23.815Z,11.93
2022-09-14T02:02:54.006Z,11.93
2022-09-14T02:05:24.594Z,11.92
2022-09-14T02:07:52.217Z,11.95
2022-09-14T02:10:19.852Z,11.96
2022-09-14T02:12:47.743Z,11.93
2022-09-14T02:15:17.207Z,11.93
2022-09-14T02:17:44.997Z,11.93
2022-09-14T02:20:16.110Z,11.93
2022-09-14T02:22:44.120Z,11.93
2022-09-14T02:25:12.003Z,11.92
2022-09-14T02:27:39.585Z,11.91
2022-09-14T02:30:08.186Z,11.91
2022-09-14T02:32:42.089Z,11.90
2022-09-14T02:35:16.578Z,11.84
2022-09-14T02:37:46.583Z,11.82
2022-09-14T02:40:16.906Z,11.81
2022-09-14T02:42:50.760Z,11.75
2022-09-14T02:45:21.655Z,11.71
2022-09-14T02:47:55.369Z,11.70
2022-09-14T02:50:25.455Z,11.69
2022-09-14T02:52:58.611Z,11.65
2022-09-14T02:55:29.405Z,11.65
2022-09-14T02:58:00.467Z,11.65
2022-09-14T03:00:28.692Z,11.64
2022-09-14T03:02:57.838Z,11.64
2022-09-14T03:05:25.797Z,11.62
2022-09-14T03:07:53.376Z,11.62
2022-09-14T03:10:21.081Z,11.60
2022-09-14T03:12:48.662Z,11.52
2022-09-14T03:15:16.397Z,11.46
2022-09-14T03:17:46.789Z,11.43
2022-09-14T03:20:16.155Z,11.43
2022-09-14T03:22:43.779Z,11.41
2022-09-14T03:25:11.373Z,11.37
2022-09-14T03:27:39.795Z,11.32
2022-09-14T03:30:08.189Z,11.30
2022-09-14T03:32:35.871Z,11.29
2022-09-14T03:35:03.486Z,11.28
2022-09-14T03:37:32.450Z,11.24
2022-09-14T03:40:00.073Z,11.23
2022-09-14T03:42:27.695Z,11.21
2022-09-14T03:44:55.299Z,11.20
2022-09-14T03:47:22.881Z,11.19
2022-09-14T03:49:50.866Z,11.17
2022-09-14T03:52:18.499Z,11.18
2022-09-14T03:54:47.463Z,11.14
2022-09-14T03:57:15.068Z,11.15
2022-09-14T03:59:43.876Z,11.16
2022-09-14T04:02:11.650Z,11.13
2022-09-14T04:04:39.398Z,11.14
2022-09-14T04:07:07.601Z,11.13
2022-09-14T04:09:35.182Z,11.11
2022-09-14T04:12:04.226Z,11.10
2022-09-14T04:14:31.816Z,11.11
2022-09-14T04:16:59.431Z,11.08
2022-09-14T04:19:27.390Z,11.08
2022-09-14T04:21:54.994Z,11.07
2022-09-14T04:24:27.724Z,11.06
2022-09-14T04:26:57.600Z,11.09
2022-09-14T04:29:26.954Z,11.07
2022-09-14T04:31:54.564Z,11.07
2022-09-14T04:34:22.182Z,11.08
2022-09-14T04:36:49.879Z,11.11
2022-09-14T04:39:17.597Z,11.09
2022-09-14T04:41:45.183Z,11.10
2022-09-14T04:44:12.953Z,11.08
2022-09-14T04:46:46.615Z,11.10
2022-09-14T04:49:14.948Z,11.09
2022-09-14T04:51:42.641Z,11.13
2022-09-14T04:54:10.977Z,11.13
2022-09-14T04:56:38.559Z,11.13
2022-09-14T04:59:06.727Z,11.15
2022-09-14T05:01:35.009Z,11.15
2022-09-14T05:04:04.594Z,11.15
2022-09-14T05:06:33.405Z,11.15
2022-09-14T05:09:01.424Z,11.16
2022-09-14T05:11:30.298Z,11.17
2022-09-14T05:13:58.273Z,11.18
2022-09-14T05:16:26.771Z,11.20
2022-09-14T05:18:55.603Z,11.18
2022-09-14T05:21:24.995Z,11.17
2022-09-14T05:23:56.392Z,11.23
2022-09-14T05:26:24.582Z,11.21
2022-09-14T05:28:53.247Z,11.18
2022-09-14T05:31:21.087Z,11.20
2022-09-14T05:33:48.779Z,11.21
2022-09-14T05:36:17.132Z,11.21
2022-09-14T05:38:46.203Z,11.19
2022-09-14T05:41:14.454Z,11.22
2022-09-14T05:43:42.554Z,11.20
2022-09-14T05:46:11.645Z,11.24
2022-09-14T05:48:40.208Z,11.25
2022-09-14T05:51:08.874Z,11.29
2022-09-14T05:53:36.481Z,11.31
2022-09-14T05:56:06.527Z,11.35
2022-09-14T05:58:34.369Z,11.37
2022-09-14T06:01:07.430Z,11.37
2022-09-14T06:03:35.066Z,11.39
2022-09-14T06:06:02.719Z,11.43
2022-09-14T06:08:30.347Z,11.39
2022-09-14T06:10:57.934Z,11.40
2022-09-14T06:13:27.078Z,11.44
2022-09-14T06:15:54.699Z,11.46
2022-09-14T06:18:22.398Z,11.46
2022-09-14T06:20:53.372Z,11.43
2022-09-14T06:23:20.960Z,11.46
2022-09-14T06:25:48.615Z,11.48
2022-09-14T06:28:16.211Z,11.51
2022-09-14T06:30:45.822Z,11.59
2022-09-14T06:33:13.406Z,11.60
2022-09-14T06:35:42.158Z,11.63
2022-09-14T06:38:10.003Z,11.72
2022-09-14T06:40:37.607Z,11.81
2022-09-14T06:43:05.189Z,11.80
2022-09-14T06:45:33.155Z,11.82
2022-09-14T06:48:05.299Z,12.23
2022-09-14T06:50:35.763Z,12.13
2022-09-14T06:53:06.291Z,12.03
2022-09-14T06:55:33.878Z,11.96
2022-09-14T06:58:04.558Z,11.92
2022-09-14T07:00:32.195Z,11.92
2022-09-14T07:02:59.817Z,11.89
2022-09-14T07:05:29.152Z,11.87
2022-09-14T07:07:56.751Z,11.82
2022-09-14T07:10:28.079Z,11.88
2022-09-14T07:12:55.960Z,11.95
2022-09-14T07:15:23.661Z,12.01
2022-09-14T07:17:51.299Z,11.99
2022-09-14T07:20:19.193Z,12.01
2022-09-14T07:22:48.186Z,12.08
2022-09-14T07:25:15.826Z,12.06
2022-09-14T07:27:44.103Z,12.07
2022-09-14T07:30:12.599Z,12.03
2022-09-14T07:32:40.434Z,12.02
2022-09-14T07:35:08.575Z,11.99
2022-09-14T07:37:36.413Z,12.10
2022-09-14T07:40:05.783Z,12.10
2022-09-14T07:42:33.515Z,12.04
2022-09-14T07:45:01.136Z,12.07
2022-09-14T07:47:28.734Z,12.01
2022-09-14T07:49:56.407Z,12.09
2022-09-14T07:52:24.003Z,12.10
2022-09-14T07:54:51.964Z,11.99
2022-09-14T07:57:33.980Z,11.92
2022-09-14T08:00:10.350Z,11.92
2022-09-14T08:02:38.012Z,11.98
2022-09-14T08:05:05.978Z,11.97
2022-09-14T08:07:33.711Z,11.89
2022-09-14T08:10:02.182Z,11.91
2022-09-14T08:12:31.179Z,11.97
2022-09-14T08:14:58.811Z,12.03
2022-09-14T08:17:26.462Z,12.05
2022-09-14T08:19:55.694Z,12.07
2022-09-14T08:22:23.308Z,12.06
2022-09-14T08:24:50.903Z,12.10
2022-09-14T08:27:18.517Z,12.14
2022-09-14T08:29:47.526Z,12.18
2022-09-14T08:32:15.142Z,12.22
2022-09-14T08:34:45.837Z,12.20
2022-09-14T08:37:13.965Z,12.18
2022-09-14T08:39:41.614Z,12.20
2022-09-14T08:42:15.314Z,12.20
2022-09-14T08:44:43.999Z,12.21
2022-09-14T08:47:14.794Z,12.23
2022-09-14T08:49:53.197Z,12.22
2022-09-14T08:52:25.710Z,12.27
2022-09-14T08:54:55.107Z,12.32
2022-09-14T08:57:29.694Z,12.26
2022-09-14T09:00:03.583Z,12.26
2022-09-14T09:02:42.199Z,12.25
2022-09-14T09:05:23.114Z,12.27
2022-09-14T09:07:56.655Z,12.31
2022-09-14T09:10:26.647Z,12.29
2022-09-14T09:12:55.485Z,12.32
2022-09-14T09:15:25.309Z,12.33
2022-09-14T09:17:57.078Z,12.36
2022-09-14T09:20:27.354Z,12.38
2022-09-14T09:23:03.620Z,12.43
2022-09-14T09:25:34.666Z,12.57
2022-09-14T09:28:04.008Z,12.47
2022-09-14T09:30:31.636Z,12.45
2022-09-14T09:33:00.819Z,12.44
2022-09-14T09:35:28.912Z,12.44
2022-09-14T09:37:56.542Z,12.50
2022-09-14T09:40:27.839Z,12.66
2022-09-14T09:43:05.388Z,12.81
2022-09-14T09:45:49.605Z,12.82
2022-09-14T09:48:19.658Z,12.83
2022-09-14T09:50:52.186Z,12.86
2022-09-14T09:53:22.201Z,12.83
2022-09-14T09:55:50.534Z,12.79
2022-09-14T09:58:22.770Z,12.83
2022-09-14T10:00:56.570Z,12.87
2022-09-14T10:03:29.789Z,12.85
2022-09-14T10:06:02.092Z,12.86
2022-09-14T10:08:34.242Z,12.80
2022-09-14T10:11:04.721Z,12.89
2022-09-14T10:13:38.132Z,12.91
2022-09-14T10:16:13.345Z,12.91
2022-09-14T10:18:48.842Z,12.97
2022-09-14T10:21:17.240Z,12.93
2022-09-14T10:23:45.400Z,12.89
2022-09-14T10:26:21.665Z,12.87
2022-09-14T10:28:50.259Z,12.87
2022-09-14T10:31:22.981Z,12.87
2022-09-14T10:33:52.898Z,12.87
2022-09-14T10:36:25.658Z,12.89
2022-09-14T10:38:58.731Z,12.88
2022-09-14T10:41:31.261Z,12.81
2022-09-14T10:44:13.742Z,12.83
2022-09-14T10:46:45.067Z,12.76
2022-09-14T10:49:23.539Z,12.72
2022-09-14T10:51:59.783Z,12.70
2022-09-14T10:54:40.652Z,12.66
2022-09-14T10:57:13.383Z,12.70
2022-09-14T10:59:47.239Z,12.67
2022-09-14T11:02:25.151Z,12.68
2022-09-14T11:05:02.273Z,12.72
2022-09-14T11:07:37.001Z,12.75
2022-09-14T11:10:10.295Z,12.79
2022-09-14T11:12:41.367Z,12.79
2022-09-14T11:15:15.386Z,12.83
2022-09-14T11:17:54.373Z,12.88
2022-09-14T11:20:28.451Z,12.91
2022-09-14T11:23:02.043Z,12.95
2022-09-14T11:25:33.610Z,12.99
2022-09-14T11:28:03.566Z,12.97
2022-09-14T11:30:34.454Z,12.97
2022-09-14T11:33:03.946Z,12.98
2022-09-14T11:35:35.531Z,12.95
2022-09-14T11:38:07.279Z,12.94
2022-09-14T11:40:36.931Z,12.89
2022-09-14T11:43:06.716Z,12.87
2022-09-14T11:45:37.527Z,12.88
2022-09-14T11:48:40.923Z,12.84
2022-09-14T11:51:03.358Z,12.82
2022-09-14T11:53:32.729Z,12.78
2022-09-14T11:56:00.843Z,12.77
2022-09-14T11:58:29.990Z,12.73
2022-09-14T12:01:02.616Z,12.70
2022-09-14T12:03:54.104Z,12.66
2022-09-14T12:06:40.301Z,12.66
2022-09-14T12:09:25.842Z,12.60
2022-09-14T12:11:55.814Z,12.55
2022-09-14T12:14:29.739Z,12.53
2022-09-14T12:17:17.640Z,12.52
2022-09-14T12:19:59.298Z,12.56
2022-09-14T12:22:32.039Z,12.60
2022-09-14T12:25:01.580Z,12.63
2022-09-14T12:27:33.311Z,12.66
2022-09-14T12:30:00.931Z,12.71
2022-09-14T12:32:39.139Z,12.80
2022-09-14T12:35:25.211Z,12.80
2022-09-14T12:37:52.815Z,12.90
2022-09-14T12:40:29.275Z,12.92
2022-09-14T12:42:58.299Z,12.95
2022-09-14T12:45:44.703Z,13.09
2022-09-14T12:48:12.318Z,13.13
2022-09-14T12:50:41.631Z,13.21
2022-09-14T12:53:30.042Z,13.25
2022-09-14T12:56:01.293Z,13.23
2022-09-14T12:58:41.954Z,13.26
2022-09-14T13:01:19.873Z,13.24
2022-09-14T13:03:49.791Z,13.18
2022-09-14T13:06:17.928Z,13.22
2022-09-14T13:08:47.060Z,13.25
2022-09-14T13:11:27.488Z,13.29
2022-09-14T13:13:59.135Z,13.30
2022-09-14T13:16:38.875Z,13.28
2022-09-14T13:19:19.976Z,13.29
2022-09-14T13:21:49.013Z,13.31
2022-09-14T13:24:27.764Z,13.34
2022-09-14T13:26:59.579Z,13.32
2022-09-14T13:29:28.806Z,13.37
2022-09-14T13:32:03.642Z,13.39
2022-09-14T13:34:36.224Z,13.44
2022-09-14T13:37:04.097Z,13.49
2022-09-14T13:39:33.097Z,13.50
2022-09-14T13:42:00.947Z,13.49
2022-09-14T13:44:32.509Z,13.54
2022-09-14T13:47:02.411Z,13.58
2022-09-14T13:49:30.355Z,13.61
2022-09-14T13:52:16.379Z,13.68
2022-09-14T13:54:43.975Z,13.75
2022-09-14T13:57:15.233Z,13.72
2022-09-14T14:00:01.297Z,13.73
2022-09-14T14:02:32.939Z,13.72
2022-09-14T14:05:00.803Z,13.73
2022-09-14T14:07:33.410Z,13.70
2022-09-14T14:10:01.678Z,13.68
2022-09-14T14:12:30.457Z,13.67
2022-09-14T14:14:59.207Z,13.63
2022-09-14T14:17:36.947Z,13.61
2022-09-14T14:20:23.034Z,13.60
2022-09-14T14:22:57.413Z,13.62
2022-09-14T14:25:29.855Z,13.61
2022-09-14T14:28:00.387Z,13.66
2022-09-14T14:30:30.131Z,13.69
2022-09-14T14:33:00.001Z,13.72
2022-09-14T14:35:29.223Z,13.69
2022-09-14T14:37:56.993Z,13.68
2022-09-14T14:40:27.290Z,13.69
2022-09-14T14:42:58.141Z,13.69
2022-09-14T14:45:27.435Z,13.68
2022-09-14T14:47:55.951Z,13.69
2022-09-14T14:50:26.674Z,13.68
2022-09-14T14:52:54.622Z,13.67
2022-09-14T14:55:22.629Z,13.70
2022-09-14T14:57:53.029Z,13.68
2022-09-14T15:00:24.460Z,13.72
2022-09-14T15:02:52.173Z,13.72
2022-09-14T15:05:20.187Z,13.73
2022-09-14T15:07:52.197Z,13.73
2022-09-14T15:10:23.707Z,13.75
2022-09-14T15:12:51.896Z,13.75
2022-09-14T15:15:20.733Z,13.74
2022-09-14T15:17:51.188Z,13.74
2022-09-14T15:20:20.019Z,13.70
2022-09-14T15:22:49.351Z,13.68
2022-09-14T15:25:17.883Z,13.67
2022-09-14T15:27:45.477Z,13.64
2022-09-14T15:30:13.501Z,13.60
2022-09-14T15:32:41.264Z,13.59
2022-09-14T15:35:09.827Z,13.55
2022-09-14T15:37:37.414Z,13.52
2022-09-14T15:40:07.206Z,13.48
2022-09-14T15:42:34.840Z,13.50
2022-09-14T15:45:03.950Z,13.46
2022-09-14T15:47:35.606Z,13.43
2022-09-14T15:50:03.995Z,13.44
2022-09-14T15:52:31.594Z,13.42
2022-09-14T15:54:59.173Z,13.40
2022-09-14T15:57:30.972Z,13.38
2022-09-14T15:59:58.598Z,13.39
2022-09-14T16:02:29.344Z,13.36
2022-09-14T16:04:56.999Z,13.37
2022-09-14T16:07:24.618Z,13.37
2022-09-14T16:09:55.046Z,13.35
2022-09-14T16:12:27.564Z,13.32
2022-09-14T16:14:59.040Z,13.33
2022-09-14T16:17:26.942Z,13.33
2022-09-14T16:19:54.550Z,13.34
2022-09-14T16:22:22.242Z,13.29
2022-09-14T16:24:50.014Z,13.30
2022-09-14T16:27:17.738Z,13.31
2022-09-14T16:29:45.347Z,13.31
2022-09-14T16:32:14.317Z,13.30
2022-09-14T16:34:41.928Z,13.27
2022-09-14T16:37:09.758Z,13.26
2022-09-14T16:39:37.345Z,13.25
2022-09-14T16:42:05.111Z,13.25
2022-09-14T16:44:33.066Z,13.28
2022-09-14T16:47:03.077Z,13.29
2022-09-14T16:49:32.180Z,13.29
2022-09-14T16:52:00.788Z,13.26
2022-09-14T16:54:29.867Z,13.25
2022-09-14T16:56:59.357Z,13.26
2022-09-14T16:59:27.238Z,13.25
2022-09-14T17:01:55.564Z,13.23
2022-09-14T17:04:24.306Z,13.23
2022-09-14T17:06:55.132Z,13.22
2022-09-14T17:09:24.308Z,13.21
2022-09-14T17:11:52.302Z,13.20
2022-09-14T17:14:20.717Z,13.18
2022-09-14T17:16:48.769Z,13.19
2022-09-14T17:19:16.888Z,13.19
2022-09-14T17:21:45.617Z,13.17
2022-09-14T17:24:15.305Z,13.14
2022-09-14T17:26:43.540Z,13.13
2022-09-14T17:29:14.079Z,13.10
2022-09-14T17:31:43.946Z,13.06
2022-09-14T17:34:16.584Z,13.04
2022-09-14T17:36:44.468Z,13.03
2022-09-14T17:39:16.611Z,13.03
2022-09-14T17:41:44.446Z,13.02
2022-09-14T17:44:12.652Z,13.04
2022-09-14T17:46:50.762Z,13.03
2022-09-14T17:49:20.733Z,13.02
2022-09-14T17:51:49.226Z,13.06
2022-09-14T17:54:18.747Z,13.06
2022-09-14T17:56:46.494Z,13.05
2022-09-14T17:59:20.090Z,13.06
2022-09-14T18:01:48.074Z,13.06
2022-09-14T18:04:15.976Z,13.06
2022-09-14T18:06:44.506Z,13.06
2022-09-14T18:09:13.319Z,13.06
2022-09-14T18:11:42.896Z,13.05
2022-09-14T18:14:12.886Z,13.05
2022-09-14T18:16:40.910Z,13.02
2022-09-14T18:19:08.601Z,13.04
2022-09-14T18:21:36.231Z,13.01
2022-09-14T18:24:04.127Z,13.02
2022-09-14T18:26:32.000Z,13.01
2022-09-14T18:29:01.134Z,12.97
2022-09-14T18:31:29.008Z,12.94
2022-09-14T18:33:59.291Z,12.90
2022-09-14T18:36:29.297Z,12.89
2022-09-14T18:38:57.577Z,12.87
2022-09-14T18:41:25.201Z,12.84
2022-09-14T18:43:53.452Z,12.79
2022-09-14T18:46:25.915Z,12.76
2022-09-14T18:48:56.863Z,12.70
2022-09-14T18:51:24.491Z,12.67
2022-09-14T18:53:56.407Z,12.63
2022-09-14T18:56:24.124Z,12.61
2022-09-14T18:58:51.804Z,12.55
2022-09-14T19:01:19.656Z,12.54
2022-09-14T19:03:48.899Z,12.49
2022-09-14T19:06:17.900Z,12.47
2022-09-14T19:08:45.925Z,12.48
2022-09-14T19:11:14.443Z,12.43
2022-09-14T19:13:42.449Z,12.41
2022-09-14T19:16:11.248Z,12.37
2022-09-14T19:18:39.394Z,12.33
2022-09-14T19:21:09.530Z,12.31
2022-09-14T19:23:37.556Z,12.26
2022-09-14T19:26:06.125Z,12.23
2022-09-14T19:28:34.010Z,12.19
2022-09-14T19:31:05.257Z,12.15
2022-09-14T19:33:32.874Z,12.11
2022-09-14T19:36:04.338Z,12.09
2022-09-14T19:38:33.455Z,12.02
2022-09-14T19:41:01.078Z,12.01
2022-09-14T19:43:31.474Z,11.98
2022-09-14T19:46:01.985Z,11.97
2022-09-14T19:48:29.639Z,11.93
2022-09-14T19:50:58.891Z,11.87
2022-09-14T19:53:26.704Z,11.81
2022-09-14T19:55:55.717Z,11.80
2022-09-14T19:58:23.574Z,11.77
2022-09-14T20:00:53.599Z,11.73
2022-09-14T20:03:21.308Z,11.63
2022-09-14T20:05:48.926Z,11.65
2022-09-14T20:08:16.563Z,11.64
2022-09-14T20:10:44.191Z,11.62
2022-09-14T20:13:13.191Z,11.56
2022-09-14T20:15:40.821Z,11.52
2022-09-14T20:18:08.598Z,11.52
2022-09-14T20:20:37.659Z,11.45
2022-09-14T20:23:05.308Z,11.45
2022-09-14T20:25:34.346Z,11.39
2022-09-14T20:28:02.094Z,11.39
2022-09-14T20:30:31.089Z,11.35
2022-09-14T20:32:58.702Z,11.34
2022-09-14T20:35:26.439Z,11.33
2022-09-14T20:37:54.146Z,11.30
2022-09-14T20:40:21.844Z,11.28
2022-09-14T20:42:49.506Z,11.29
2022-09-14T20:45:17.191Z,11.25
2022-09-14T20:47:46.183Z,11.24
2022-09-14T20:50:13.792Z,11.22
2022-09-14T20:52:41.422Z,11.20
2022-09-14T20:55:09.902Z,11.18
2022-09-14T20:57:37.577Z,11.20
2022-09-14T21:00:05.580Z,11.17
2022-09-14T21:02:33.203Z,11.12
2022-09-14T21:05:02.285Z,11.11
2022-09-14T21:07:29.894Z,11.07
2022-09-14T21:09:57.654Z,11.07
2022-09-14T21:12:25.244Z,11.05
2022-09-14T21:14:52.874Z,11.03
2022-09-14T21:17:21.835Z,11.01
2022-09-14T21:19:49.439Z,10.98
2022-09-14T21:22:18.750Z,10.96
2022-09-14T21:24:49.144Z,10.98
2022-09-14T21:27:16.724Z,10.95
2022-09-14T21:29:46.381Z,10.97
2022-09-14T21:32:14.018Z,10.99
2022-09-14T21:34:41.614Z,11.04
2022-09-14T21:37:09.377Z,11.02
2022-09-14T21:39:40.363Z,11.03
2022-09-14T21:42:08.154Z,11.03
2022-09-14T21:44:37.764Z,11.05
2022-09-14T21:47:05.619Z,11.08
2022-09-14T21:49:33.366Z,11.09
2022-09-14T21:52:00.961Z,11.10
2022-09-14T21:54:28.583Z,11.09
2022-09-14T21:56:57.553Z,11.08
2022-09-14T21:59:27.913Z,11.09
2022-09-14T22:01:55.583Z,11.08
2022-09-14T22:04:24.007Z,11.04
2022-09-14T22:06:53.213Z,11.03
2022-09-14T22:09:21.942Z,10.97
2022-09-14T22:11:49.683Z,10.93
2022-09-14T22:14:19.557Z,10.91
2022-09-14T22:16:47.686Z,10.87
2022-09-14T22:19:16.460Z,10.82
2022-09-14T22:21:44.671Z,10.83
2022-09-14T22:24:13.535Z,10.78
2022-09-14T22:26:41.427Z,10.73
2022-09-14T22:29:09.847Z,10.72
2022-09-14T22:31:39.725Z,10.67
2022-09-14T22:34:07.826Z,10.64
2022-09-14T22:36:35.918Z,10.60
2022-09-14T22:39:04.337Z,10.61
2022-09-14T22:41:31.979Z,10.59
2022-09-14T22:44:03.229Z,10.54
2022-09-14T22:46:34.458Z,10.48
2022-09-14T22:49:03.482Z,10.49
2022-09-14T22:51:31.325Z,10.46
2022-09-14T22:53:59.337Z,10.42
2022-09-14T22:56:30.278Z,10.39
2022-09-14T22:58:58.135Z,10.37
2022-09-14T23:01:26.878Z,10.38
2022-09-14T23:03:59.409Z,10.36
2022-09-14T23:06:29.195Z,10.33
2022-09-14T23:08:56.897Z,10.30
2022-09-14T23:11:24.745Z,10.29
2022-09-14T23:13:52.373Z,10.28
2022-09-14T23:16:21.108Z,10.24
2022-09-14T23:18:51.396Z,10.23
2022-09-14T23:21:19.123Z,10.22
2022-09-14T23:23:50.913Z,10.20
2022-09-14T23:26:18.562Z,10.17
2022-09-14T23:28:46.158Z,10.19
2022-09-14T23:31:13.790Z,10.14
2022-09-14T23:33:41.446Z,10.11
2022-09-14T23:36:09.254Z,10.09
2022-09-14T23:38:36.874Z,10.08
2022-09-14T23:41:06.030Z,10.03
2022-09-14T23:43:33.611Z,10.02
2022-09-14T23:46:01.276Z,10.03
2022-09-14T23:48:29.008Z,9.99
2022-09-14T23:50:57.813Z,9.99
2022-09-14T23:53:25.438Z,9.98
2022-09-14T23:55:53.321Z,9.96
2022-09-14T23:58:22.367Z,9.91
